Time;durP1;ratioP1;P1;durP2;ratioP2;P2;SDS_P1;SDS_P2;PMS_P1;PMS_P2;Temp;Humidity;BMP_temperature;BMP_pressure;BME280_temperature;BME280_humidity;BME280_pressure;Samples;Min_cycle;Max_cycle;Signal;HPM_P1;HPM_P2
2022/09/30 00:00:59;;;;;;;3.75;3.60;;;;;;;;;;5084068;28;20256;-68
2022/09/30 00:03:27;;;;;;;5.00;4.07;;;;;;;;;;5084148;28;20399;-69
2022/09/30 00:05:57;;;;;;;7.15;4.25;;;;;;;;;;5084453;28;20217;-69
2022/09/30 00:08:24;;;;;;;4.72;3.67;;;;;;;;;;5082744;28;20196;-68
2022/09/30 00:10:58;;;;;;;4.70;4.40;;;;;;;;;;5083840;28;20250;-68
2022/09/30 00:13:24;;;;;;;7.28;4.25;;;;;;;;;;5083994;28;20370;-68
2022/09/30 00:15:51;;;;;;;4.90;4.35;;;;;;;;;;5084002;28;20196;-68
2022/09/30 00:18:17;;;;;;;6.13;4.07;;;;;;;;;;5083902;28;20204;-67
2022/09/30 00:20:45;;;;;;;4.90;4.50;;;;;;;;;;5083924;28;20196;-68
2022/09/30 00:23:11;;;;;;;4.20;3.80;;;;;;;;;;5083407;28;20202;-68
2022/09/30 00:25:37;;;;;;;4.53;4.07;;;;;;;;;;5083714;28;20310;-68
2022/09/30 00:28:06;;;;;;;5.10;4.10;;;;;;;;;;5083621;28;20476;-68
2022/09/30 00:30:33;;;;;;;4.82;3.53;;;;;;;;;;5083571;28;20258;-68
2022/09/30 00:32:59;;;;;;;3.97;3.65;;;;;;;;;;5083377;28;20200;-68
2022/09/30 00:35:25;;;;;;;5.13;3.95;;;;;;;;;;5083586;28;20208;-68
2022/09/30 00:37:54;;;;;;;4.80;3.70;;;;;;;;;;5083206;28;20197;-68
2022/09/30 00:40:20;;;;;;;4.40;4.10;;;;;;;;;;5083589;28;20492;-68
2022/09/30 00:42:46;;;;;;;5.50;4.43;;;;;;;;;;5083223;28;20208;-68
2022/09/30 00:45:13;;;;;;;6.32;4.63;;;;;;;;;;5083363;28;20384;-68
2022/09/30 00:47:48;;;;;;;6.68;4.50;;;;;;;;;;5083231;28;20398;-68
2022/09/30 00:50:24;;;;;;;5.10;4.53;;;;;;;;;;5082934;28;20208;-68
2022/09/30 00:52:51;;;;;;;5.40;4.85;;;;;;;;;;5083120;28;20283;-68
2022/09/30 00:55:24;;;;;;;7.40;4.50;;;;;;;;;;5083029;28;20196;-68
2022/09/30 00:57:50;;;;;;;5.78;4.38;;;;;;;;;;5083195;28;20197;-68
2022/09/30 01:00:17;;;;;;;8.77;4.80;;;;;;;;;;5083067;28;20227;-68
2022/09/30 01:02:45;;;;;;;6.43;4.38;;;;;;;;;;5082666;28;20215;-67
2022/09/30 01:05:12;;;;;;;5.05;4.55;;;;;;;;;;5082823;28;20228;-67
2022/09/30 01:07:38;;;;;;;4.75;4.28;;;;;;;;;;5082975;28;20231;-67
2022/09/30 01:13:09;;;;;;;7.38;4.57;;;;;;;;;;5081691;28;20426;-67
2022/09/30 01:15:42;;;;;;;4.78;4.38;;;;;;;;;;5082779;28;20202;-68
2022/09/30 01:18:11;;;;;;;7.10;4.60;;;;;;;;;;5082561;28;20205;-68
2022/09/30 01:20:47;;;;;;;4.68;4.22;;;;;;;;;;5082406;28;20193;-68
2022/09/30 01:23:26;;;;;;;5.55;4.30;;;;;;;;;;5082533;28;20384;-68
2022/09/30 01:26:07;;;;;;;5.80;4.57;;;;;;;;;;5082467;28;20196;-68
2022/09/30 01:28:46;;;;;;;4.68;4.22;;;;;;;;;;5069745;28;20522;-69
2022/09/30 01:31:18;;;;;;;5.13;4.63;;;;;;;;;;5082633;28;20227;-68
2022/09/30 01:33:46;;;;;;;7.47;4.95;;;;;;;;;;5082308;28;20504;-68
2022/09/30 01:36:20;;;;;;;6.63;4.60;;;;;;;;;;5082320;28;20204;-68
2022/09/30 01:38:49;;;;;;;8.65;4.50;;;;;;;;;;5082277;28;20212;-68
2022/09/30 01:41:21;;;;;;;4.72;4.25;;;;;;;;;;5082358;28;20238;-68
2022/09/30 01:43:49;;;;;;;7.28;4.63;;;;;;;;;;5082261;28;20243;-68
2022/09/30 01:46:21;;;;;;;5.40;4.32;;;;;;;;;;5082293;28;20200;-69
2022/09/30 01:48:52;;;;;;;5.85;4.10;;;;;;;;;;5082231;28;20211;-68
2022/09/30 01:51:23;;;;;;;9.10;4.75;;;;;;;;;;5082029;28;20228;-68
2022/09/30 01:53:50;;;;;;;4.40;4.10;;;;;;;;;;5082153;28;20219;-68
2022/09/30 01:56:18;;;;;;;5.63;5.13;;;;;;;;;;5082325;28;20499;-68
2022/09/30 01:58:48;;;;;;;6.05;4.53;;;;;;;;;;5082010;28;20205;-69
2022/09/30 02:01:17;;;;;;;6.88;5.97;;;;;;;;;;5082178;28;20192;-69
2022/09/30 02:03:48;;;;;;;5.05;4.55;;;;;;;;;;5081819;28;20197;-68
2022/09/30 02:06:16;;;;;;;5.60;5.07;;;;;;;;;;5082412;28;20220;-68
2022/09/30 02:08:45;;;;;;;6.53;4.70;;;;;;;;;;5082165;28;20544;-68
2022/09/30 02:11:13;;;;;;;5.18;4.68;;;;;;;;;;5081751;28;20230;-69
2022/09/30 02:13:43;;;;;;;5.63;4.47;;;;;;;;;;5081877;28;20196;-69
2022/09/30 02:16:21;;;;;;;7.10;4.93;;;;;;;;;;5081888;28;20235;-69
2022/09/30 02:18:50;;;;;;;6.05;5.20;;;;;;;;;;5081928;28;20242;-69
2022/09/30 02:21:19;;;;;;;5.70;5.10;;;;;;;;;;5082024;28;20263;-69
2022/09/30 02:23:47;;;;;;;7.85;4.85;;;;;;;;;;5081706;28;20200;-69
2022/09/30 02:26:16;;;;;;;5.55;4.60;;;;;;;;;;5081655;28;20207;-68
2022/09/30 02:28:45;;;;;;;5.13;4.55;;;;;;;;;;5081771;28;20478;-68
2022/09/30 02:31:12;;;;;;;8.98;4.90;;;;;;;;;;5081819;28;20220;-68
2022/09/30 02:33:40;;;;;;;7.30;5.10;;;;;;;;;;5085216;28;20203;-68
2022/09/30 02:36:10;;;;;;;6.50;5.30;;;;;;;;;;5085843;28;20210;-67
2022/09/30 02:38:38;;;;;;;7.25;5.25;;;;;;;;;;5085830;28;20633;-69
2022/09/30 02:41:09;;;;;;;5.38;4.85;;;;;;;;;;5085626;28;20192;-68
2022/09/30 02:43:35;;;;;;;7.50;5.40;;;;;;;;;;5085360;28;20196;-68
2022/09/30 02:46:05;;;;;;;7.15;5.30;;;;;;;;;;5085741;28;20203;-68
2022/09/30 02:48:38;;;;;;;6.13;5.40;;;;;;;;;;5085678;28;20203;-68
2022/09/30 02:51:06;;;;;;;10.20;5.10;;;;;;;;;;5085448;28;20223;-68
2022/09/30 02:53:37;;;;;;;5.47;4.97;;;;;;;;;;5085171;28;20207;-68
2022/09/30 02:56:11;;;;;;;6.40;5.28;;;;;;;;;;5085307;28;20263;-68
2022/09/30 02:58:39;;;;;;;8.15;5.80;;;;;;;;;;5085443;28;20231;-68
2022/09/30 03:01:06;;;;;;;6.13;5.63;;;;;;;;;;5085431;28;20192;-69
2022/09/30 03:03:35;;;;;;;5.60;5.20;;;;;;;;;;5084957;28;20230;-69
2022/09/30 03:06:01;;;;;;;6.28;5.75;;;;;;;;;;5085221;28;20224;-69
2022/09/30 03:08:27;;;;;;;7.63;5.50;;;;;;;;;;5084809;28;20196;-69
2022/09/30 03:10:55;;;;;;;7.07;5.35;;;;;;;;;;5084870;28;20547;-69
2022/09/30 03:13:31;;;;;;;8.20;5.20;;;;;;;;;;5084900;28;20263;-69
2022/09/30 03:16:05;;;;;;;8.80;6.25;;;;;;;;;;5084904;28;20208;-69
2022/09/30 03:18:45;;;;;;;7.40;5.43;;;;;;;;;;5085440;28;20372;-69
2022/09/30 03:21:19;;;;;;;5.57;5.07;;;;;;;;;;5085073;28;20492;-69
2022/09/30 03:24:06;;;;;;;6.15;5.40;;;;;;;;;;5084977;28;20196;-69
2022/09/30 03:26:40;;;;;;;6.22;5.30;;;;;;;;;;5084754;28;20242;-69
2022/09/30 03:29:11;;;;;;;5.75;5.32;;;;;;;;;;5084806;28;20369;-69
2022/09/30 03:31:41;;;;;;;6.93;5.70;;;;;;;;;;5084865;28;20220;-69
2022/09/30 03:34:14;;;;;;;6.20;5.60;;;;;;;;;;5084609;28;20196;-69
2022/09/30 03:36:42;;;;;;;5.47;4.97;;;;;;;;;;5084895;28;20196;-68
2022/09/30 03:39:19;;;;;;;5.35;4.95;;;;;;;;;;5084593;28;20196;-69
2022/09/30 03:41:48;;;;;;;6.20;5.10;;;;;;;;;;5084299;28;20192;-69
2022/09/30 03:44:16;;;;;;;5.72;5.22;;;;;;;;;;5084183;28;20203;-69
2022/09/30 03:46:44;;;;;;;7.18;6.32;;;;;;;;;;5084605;28;20396;-69
2022/09/30 03:49:12;;;;;;;6.45;5.85;;;;;;;;;;5084545;28;20196;-67
2022/09/30 03:51:39;;;;;;;7.38;6.28;;;;;;;;;;5084376;28;20235;-68
2022/09/30 03:54:08;;;;;;;8.38;6.07;;;;;;;;;;5083926;28;20203;-69
2022/09/30 03:56:36;;;;;;;7.68;5.88;;;;;;;;;;5084325;28;20196;-68
2022/09/30 03:59:04;;;;;;;6.85;6.30;;;;;;;;;;5084444;28;20410;-68
2022/09/30 04:01:34;;;;;;;8.32;6.45;;;;;;;;;;5084295;28;20226;-70
2022/09/30 04:04:00;;;;;;;9.23;6.22;;;;;;;;;;5084104;28;20516;-69
2022/09/30 04:06:26;;;;;;;7.32;6.53;;;;;;;;;;5083932;28;20224;-69
2022/09/30 04:08:53;;;;;;;6.78;6.18;;;;;;;;;;5082392;28;20479;-69
2022/09/30 04:11:19;;;;;;;8.13;6.72;;;;;;;;;;5083712;28;20220;-68
2022/09/30 04:13:46;;;;;;;7.50;6.80;;;;;;;;;;5083919;28;20523;-69
2022/09/30 04:16:13;;;;;;;8.05;6.45;;;;;;;;;;5083973;28;20289;-70
2022/09/30 04:18:40;;;;;;;11.07;5.47;;;;;;;;;;5083960;28;20387;-69
2022/09/30 04:21:07;;;;;;;7.47;5.68;;;;;;;;;;5083872;28;20332;-69
2022/09/30 04:23:34;;;;;;;6.47;5.85;;;;;;;;;;5083407;28;20196;-69
2022/09/30 04:26:01;;;;;;;8.18;6.05;;;;;;;;;;5083673;28;20538;-69
2022/09/30 04:28:27;;;;;;;8.95;5.80;;;;;;;;;;5083620;28;20203;-69
2022/09/30 04:30:53;;;;;;;7.75;5.88;;;;;;;;;;5083434;28;20204;-69
2022/09/30 04:33:21;;;;;;;6.50;5.82;;;;;;;;;;5083468;28;20193;-69
2022/09/30 04:35:47;;;;;;;12.63;5.88;;;;;;;;;;5083545;28;20407;-69
2022/09/30 04:38:13;;;;;;;9.27;5.65;;;;;;;;;;5083590;28;20211;-69
2022/09/30 04:40:40;;;;;;;5.78;5.38;;;;;;;;;;5083558;28;20192;-69
2022/09/30 04:43:06;;;;;;;8.00;5.65;;;;;;;;;;5083174;28;20208;-69
2022/09/30 04:45:32;;;;;;;9.70;6.70;;;;;;;;;;5083373;28;20267;-69
2022/09/30 04:47:58;;;;;;;6.18;5.50;;;;;;;;;;5083317;28;20204;-69
2022/09/30 04:50:26;;;;;;;9.05;5.47;;;;;;;;;;5083100;28;20520;-69
2022/09/30 04:52:56;;;;;;;8.65;6.03;;;;;;;;;;5083153;28;20625;-69
2022/09/30 04:55:22;;;;;;;8.52;6.53;;;;;;;;;;5082395;28;20196;-69
2022/09/30 04:57:49;;;;;;;7.18;6.57;;;;;;;;;;5082933;28;20215;-69
2022/09/30 05:00:15;;;;;;;12.85;7.07;;;;;;;;;;5082843;28;20196;-69
2022/09/30 05:02:42;;;;;;;8.20;7.03;;;;;;;;;;5082620;28;20370;-69
2022/09/30 05:05:09;;;;;;;8.15;7.32;;;;;;;;;;5082678;28;20426;-69
2022/09/30 05:07:36;;;;;;;8.48;7.03;;;;;;;;;;5082688;28;20279;-69
2022/09/30 05:10:03;;;;;;;9.35;7.38;;;;;;;;;;5083194;28;20676;-69
2022/09/30 05:12:30;;;;;;;13.50;7.70;;;;;;;;;;5082513;28;20220;-69
2022/09/30 05:14:57;;;;;;;8.18;7.38;;;;;;;;;;5082621;28;20387;-69
2022/09/30 05:17:23;;;;;;;14.18;7.28;;;;;;;;;;5082580;28;20202;-69
2022/09/30 05:19:49;;;;;;;9.45;7.60;;;;;;;;;;5082467;28;20220;-69
2022/09/30 05:22:16;;;;;;;11.75;7.55;;;;;;;;;;5082459;28;20188;-69
2022/09/30 05:24:43;;;;;;;8.90;7.53;;;;;;;;;;5082923;28;20208;-64
2022/09/30 05:27:09;;;;;;;11.50;7.82;;;;;;;;;;5083029;28;20234;-64
2022/09/30 05:29:36;;;;;;;8.20;7.38;;;;;;;;;;5083186;28;20492;-64
2022/09/30 05:32:02;;;;;;;11.27;8.32;;;;;;;;;;5075006;28;20220;-63
2022/09/30 05:34:29;;;;;;;10.10;8.45;;;;;;;;;;5061285;28;20216;-63
2022/09/30 05:36:56;;;;;;;9.70;8.32;;;;;;;;;;5076978;28;20215;-65
2022/09/30 05:39:22;;;;;;;9.13;8.20;;;;;;;;;;5079540;28;20201;-66
2022/09/30 05:41:50;;;;;;;9.52;8.35;;;;;;;;;;5072386;28;20471;-65
2022/09/30 05:44:16;;;;;;;18.25;8.65;;;;;;;;;;5071561;28;20208;-64
2022/09/30 05:46:43;;;;;;;11.20;8.30;;;;;;;;;;5079530;28;20211;-64
2022/09/30 05:49:09;;;;;;;18.85;9.80;;;;;;;;;;5075437;28;20211;-64
2022/09/30 05:51:35;;;;;;;15.13;10.20;;;;;;;;;;5073962;28;20224;-65
2022/09/30 05:54:02;;;;;;;19.38;11.05;;;;;;;;;;5075679;28;20208;-64
2022/09/30 05:56:28;;;;;;;20.33;10.02;;;;;;;;;;5076362;28;20200;-64
2022/09/30 05:58:55;;;;;;;15.10;11.38;;;;;;;;;;5076623;28;20283;-65
2022/09/30 06:01:22;;;;;;;21.02;11.50;;;;;;;;;;5076792;28;20204;-64
2022/09/30 06:03:48;;;;;;;21.48;11.50;;;;;;;;;;5076376;28;20434;-65
2022/09/30 06:06:15;;;;;;;20.30;11.43;;;;;;;;;;5074110;28;20224;-64
2022/09/30 06:08:42;;;;;;;23.55;12.15;;;;;;;;;;5077180;28;20204;-65
2022/09/30 06:11:10;;;;;;;20.83;12.40;;;;;;;;;;5076152;28;20319;-65
2022/09/30 06:13:37;;;;;;;17.48;11.15;;;;;;;;;;5075479;28;20208;-65
2022/09/30 06:16:05;;;;;;;19.42;11.80;;;;;;;;;;5076206;28;20208;-64
2022/09/30 06:18:31;;;;;;;19.90;13.23;;;;;;;;;;5076777;28;20275;-65
2022/09/30 06:20:58;;;;;;;17.38;11.82;;;;;;;;;;5075829;28;20214;-64
2022/09/30 06:23:25;;;;;;;18.73;12.75;;;;;;;;;;5074377;28;20406;-65
2022/09/30 06:25:51;;;;;;;24.33;12.77;;;;;;;;;;5073208;28;20516;-66
2022/09/30 06:28:18;;;;;;;19.95;13.13;;;;;;;;;;5076147;28;20487;-66
2022/09/30 06:30:45;;;;;;;17.73;13.35;;;;;;;;;;5075303;28;20212;-65
2022/09/30 06:33:13;;;;;;;18.13;13.05;;;;;;;;;;5075858;28;20230;-65
2022/09/30 06:35:41;;;;;;;16.05;11.65;;;;;;;;;;5075312;28;20272;-65
2022/09/30 06:38:07;;;;;;;14.32;11.73;;;;;;;;;;5075629;28;20455;-66
2022/09/30 06:40:33;;;;;;;19.00;11.50;;;;;;;;;;5076247;28;20200;-65
2022/09/30 06:43:00;;;;;;;16.33;11.05;;;;;;;;;;5074665;28;20212;-65
2022/09/30 06:45:27;;;;;;;17.70;12.43;;;;;;;;;;5074607;28;20430;-66
2022/09/30 06:47:56;;;;;;;22.00;11.93;;;;;;;;;;5074428;28;20212;-66
2022/09/30 06:50:24;;;;;;;18.10;12.32;;;;;;;;;;5075346;28;20212;-66
2022/09/30 06:52:51;;;;;;;16.15;11.75;;;;;;;;;;5074064;28;20228;-64
2022/09/30 06:55:17;;;;;;;18.00;11.77;;;;;;;;;;5074986;28;20209;-64
2022/09/30 06:57:46;;;;;;;17.92;12.00;;;;;;;;;;5076157;28;20204;-65
2022/09/30 07:00:15;;;;;;;13.30;11.90;;;;;;;;;;5076569;28;20212;-65
2022/09/30 07:02:42;;;;;;;14.77;11.55;;;;;;;;;;5074924;28;20463;-65
2022/09/30 07:05:09;;;;;;;14.95;12.55;;;;;;;;;;5075681;28;20270;-65
2022/09/30 07:07:36;;;;;;;18.27;13.27;;;;;;;;;;5075083;28;21198;-65
2022/09/30 07:10:03;;;;;;;15.30;12.93;;;;;;;;;;5076029;28;20246;-65
2022/09/30 07:12:30;;;;;;;18.27;12.57;;;;;;;;;;5075295;28;20236;-65
2022/09/30 07:14:57;;;;;;;16.52;12.65;;;;;;;;;;5074552;28;20213;-65
2022/09/30 07:17:23;;;;;;;21.40;14.82;;;;;;;;;;5075472;28;20254;-64
2022/09/30 07:19:51;;;;;;;18.38;14.40;;;;;;;;;;5078299;28;20543;-65
2022/09/30 07:22:33;;;;;;;18.20;13.80;;;;;;;;;;5078417;28;20226;-65
2022/09/30 07:25:02;;;;;;;18.33;13.38;;;;;;;;;;5078928;28;20254;-65
2022/09/30 07:27:29;;;;;;;22.45;14.98;;;;;;;;;;5077816;28;20394;-65
2022/09/30 07:29:56;;;;;;;23.10;15.60;;;;;;;;;;5078987;28;20210;-65
2022/09/30 07:32:22;;;;;;;24.73;16.38;;;;;;;;;;5079462;28;20312;-64
2022/09/30 07:34:48;;;;;;;20.77;13.93;;;;;;;;;;5078300;28;20287;-64
2022/09/30 07:37:16;;;;;;;20.90;15.52;;;;;;;;;;5078705;28;20205;-65
2022/09/30 07:39:43;;;;;;;28.50;18.35;;;;;;;;;;5080441;28;20208;-64
2022/09/30 07:42:11;;;;;;;30.13;19.02;;;;;;;;;;5079388;28;20204;-65
2022/09/30 07:44:43;;;;;;;25.48;17.45;;;;;;;;;;5078715;28;20519;-64
2022/09/30 07:47:09;;;;;;;22.52;16.85;;;;;;;;;;5079276;28;20215;-66
2022/09/30 07:49:36;;;;;;;21.25;15.55;;;;;;;;;;5079701;28;20443;-66
2022/09/30 07:52:03;;;;;;;24.52;16.70;;;;;;;;;;5080242;28;20239;-65
2022/09/30 07:54:30;;;;;;;24.92;16.38;;;;;;;;;;5078026;28;20208;-65
2022/09/30 07:56:57;;;;;;;21.95;15.88;;;;;;;;;;5077768;28;20253;-64
2022/09/30 07:59:26;;;;;;;23.48;16.88;;;;;;;;;;5077152;28;20214;-64
2022/09/30 08:01:52;;;;;;;26.00;16.83;;;;;;;;;;5078119;28;20204;-65
2022/09/30 08:04:20;;;;;;;25.48;16.63;;;;;;;;;;5077932;28;20204;-65
2022/09/30 08:06:47;;;;;;;29.15;19.05;;;;;;;;;;5077661;28;20551;-66
2022/09/30 08:09:14;;;;;;;27.05;18.35;;;;;;;;;;5078651;28;20504;-65
2022/09/30 08:11:41;;;;;;;26.92;18.50;;;;;;;;;;5078818;28;20247;-65
2022/09/30 08:14:08;;;;;;;26.63;16.83;;;;;;;;;;5078159;28;20291;-65
2022/09/30 08:16:36;;;;;;;18.65;13.63;;;;;;;;;;5077562;28;20446;-64
2022/09/30 08:19:02;;;;;;;15.82;13.40;;;;;;;;;;5077264;28;20515;-65
2022/09/30 08:21:29;;;;;;;17.23;12.82;;;;;;;;;;5077859;28;20215;-65
2022/09/30 08:23:55;;;;;;;14.93;12.00;;;;;;;;;;5077945;28;20494;-65
2022/09/30 08:26:21;;;;;;;16.15;12.63;;;;;;;;;;5078869;28;20216;-65
2022/09/30 08:28:49;;;;;;;14.10;12.45;;;;;;;;;;5077923;28;20247;-64
2022/09/30 08:31:16;;;;;;;14.57;12.20;;;;;;;;;;5076435;28;20208;-64
2022/09/30 08:33:44;;;;;;;12.88;11.32;;;;;;;;;;5078935;28;20236;-65
2022/09/30 08:36:11;;;;;;;14.25;11.55;;;;;;;;;;5078308;28;20216;-65
2022/09/30 08:38:38;;;;;;;15.40;12.07;;;;;;;;;;5077894;28;20212;-65
2022/09/30 08:41:10;;;;;;;13.20;11.75;;;;;;;;;;5077941;28;20239;-65
2022/09/30 08:43:40;;;;;;;14.10;11.65;;;;;;;;;;5077343;28;20754;-65
2022/09/30 08:46:08;;;;;;;12.73;10.68;;;;;;;;;;5077943;28;20736;-65
2022/09/30 08:48:41;;;;;;;12.50;11.00;;;;;;;;;;5077683;28;20230;-65
2022/09/30 08:51:15;;;;;;;16.10;11.75;;;;;;;;;;5075674;28;20221;-65
2022/09/30 08:53:42;;;;;;;13.48;10.77;;;;;;;;;;5074707;28;20236;-65
2022/09/30 08:56:12;;;;;;;14.63;11.80;;;;;;;;;;5074519;28;20212;-64
2022/09/30 08:58:41;;;;;;;16.77;12.63;;;;;;;;;;5074458;28;20249;-65
2022/09/30 09:01:14;;;;;;;14.23;11.98;;;;;;;;;;5074896;28;20218;-65
2022/09/30 09:03:41;;;;;;;60.55;39.40;;;;;;;;;;5070447;28;20209;-65
2022/09/30 09:06:25;;;;;;;16.48;13.63;;;;;;;;;;5074714;28;20232;-64
2022/09/30 09:08:55;;;;;;;17.58;15.15;;;;;;;;;;5071586;28;20214;-64
2022/09/30 09:11:26;;;;;;;15.48;13.23;;;;;;;;;;5074442;28;20212;-65
2022/09/30 09:13:59;;;;;;;17.67;12.70;;;;;;;;;;5075398;28;20221;-64
2022/09/30 09:16:29;;;;;;;13.18;11.57;;;;;;;;;;5074906;28;20269;-64
2022/09/30 09:18:58;;;;;;;14.15;10.98;;;;;;;;;;5076039;28;20219;-64
2022/09/30 09:21:30;;;;;;;17.52;12.93;;;;;;;;;;5075880;28;20408;-64
2022/09/30 09:24:00;;;;;;;14.25;12.45;;;;;;;;;;5074269;28;20210;-64
2022/09/30 09:26:27;;;;;;;16.13;12.23;;;;;;;;;;5075300;28;20289;-66
2022/09/30 09:29:00;;;;;;;14.07;12.05;;;;;;;;;;5075451;28;20219;-65
2022/09/30 09:31:26;;;;;;;14.88;11.85;;;;;;;;;;5077597;28;20208;-66
2022/09/30 09:33:56;;;;;;;14.25;11.45;;;;;;;;;;5075218;28;20232;-65
2022/09/30 09:36:31;;;;;;;13.40;11.85;;;;;;;;;;5077872;28;20207;-66
2022/09/30 09:39:04;;;;;;;15.50;11.48;;;;;;;;;;5076569;28;20216;-65
2022/09/30 09:41:38;;;;;;;17.00;11.80;;;;;;;;;;5075674;28;20391;-66
2022/09/30 09:44:11;;;;;;;12.50;11.25;;;;;;;;;;5076275;28;20204;-65
2022/09/30 09:46:40;;;;;;;19.10;11.45;;;;;;;;;;5076662;28;20212;-66
2022/09/30 09:49:27;;;;;;;16.80;11.63;;;;;;;;;;5076497;28;20215;-65
2022/09/30 09:52:01;;;;;;;14.45;10.82;;;;;;;;;;5076635;28;20262;-65
2022/09/30 09:54:29;;;;;;;12.88;11.23;;;;;;;;;;5077395;28;20466;-65
2022/09/30 09:56:56;;;;;;;14.80;10.80;;;;;;;;;;5076624;28;20284;-65
2022/09/30 09:59:22;;;;;;;12.18;10.23;;;;;;;;;;5076852;28;20558;-65
2022/09/30 10:01:49;;;;;;;11.00;10.00;;;;;;;;;;5076298;28;20208;-65
2022/09/30 10:04:18;;;;;;;14.18;9.95;;;;;;;;;;5076660;28;20275;-65
2022/09/30 10:06:51;;;;;;;11.30;10.20;;;;;;;;;;5077181;28;20240;-65
2022/09/30 10:09:22;;;;;;;10.93;9.40;;;;;;;;;;5077283;28;20365;-65
2022/09/30 10:11:50;;;;;;;10.82;9.70;;;;;;;;;;5076238;28;20208;-65
2022/09/30 10:14:17;;;;;;;15.02;9.52;;;;;;;;;;5075981;28;20408;-65
2022/09/30 10:16:43;;;;;;;8.75;7.97;;;;;;;;;;5076506;28;20215;-64
2022/09/30 10:19:18;;;;;;;11.88;8.55;;;;;;;;;;5076573;28;20208;-64
2022/09/30 10:21:44;;;;;;;8.40;7.15;;;;;;;;;;5072857;28;20207;-63
2022/09/30 10:24:18;;;;;;;11.55;8.40;;;;;;;;;;5073099;28;20212;-64
2022/09/30 10:26:45;;;;;;;12.50;6.07;;;;;;;;;;5076536;28;20399;-63
2022/09/30 10:29:23;;;;;;;7.10;6.40;;;;;;;;;;5072456;28;20232;-63
2022/09/30 10:31:51;;;;;;;6.93;6.20;;;;;;;;;;5075994;28;20234;-65
2022/09/30 10:34:21;;;;;;;5.07;4.68;;;;;;;;;;5075703;28;20486;-64
2022/09/30 10:36:48;;;;;;;5.72;4.85;;;;;;;;;;5076652;28;20208;-64
2022/09/30 10:39:19;;;;;;;5.30;4.80;;;;;;;;;;5075901;28;20215;-64
2022/09/30 10:41:45;;;;;;;4.65;4.22;;;;;;;;;;5072598;28;20212;-63
2022/09/30 10:44:15;;;;;;;4.75;4.25;;;;;;;;;;5077243;28;20204;-63
2022/09/30 10:46:45;;;;;;;3.88;3.10;;;;;;;;;;5076725;28;20284;-62
2022/09/30 10:49:12;;;;;;;2.92;2.83;;;;;;;;;;5071969;28;20219;-63
2022/09/30 10:51:38;;;;;;;3.03;2.83;;;;;;;;;;5076029;28;20420;-63
2022/09/30 10:54:05;;;;;;;3.88;3.15;;;;;;;;;;5078329;28;20235;-63
2022/09/30 10:56:39;;;;;;;5.00;3.13;;;;;;;;;;5079523;28;20208;-63
2022/09/30 10:59:08;;;;;;;6.28;3.22;;;;;;;;;;5079891;28;20208;-63
2022/09/30 11:01:37;;;;;;;3.30;3.00;;;;;;;;;;5079221;28;21102;-64
2022/09/30 11:04:10;;;;;;;3.08;2.58;;;;;;;;;;5079698;28;20208;-64
2022/09/30 11:06:38;;;;;;;2.00;1.90;;;;;;;;;;5079813;28;20234;-63
2022/09/30 11:09:07;;;;;;;4.32;2.15;;;;;;;;;;5079326;28;20213;-63
2022/09/30 11:11:37;;;;;;;2.22;2.10;;;;;;;;;;5080018;28;20208;-63
2022/09/30 11:14:12;;;;;;;4.30;2.63;;;;;;;;;;5079354;28;20236;-64
2022/09/30 11:16:45;;;;;;;3.50;2.28;;;;;;;;;;5078905;28;20509;-64
2022/09/30 11:19:19;;;;;;;5.15;3.70;;;;;;;;;;5079592;28;20215;-61
2022/09/30 11:21:46;;;;;;;2.60;2.40;;;;;;;;;;5079728;28;20576;-65
2022/09/30 11:24:20;;;;;;;1.88;1.77;;;;;;;;;;5076872;28;20452;-65
2022/09/30 11:26:52;;;;;;;2.00;1.90;;;;;;;;;;5076184;28;20567;-65
2022/09/30 11:29:27;;;;;;;2.50;2.33;;;;;;;;;;5079270;28;20205;-64
2022/09/30 11:31:58;;;;;;;2.17;2.08;;;;;;;;;;5079310;28;20212;-64
2022/09/30 11:34:34;;;;;;;2.30;2.10;;;;;;;;;;5078959;28;20427;-64
2022/09/30 11:37:05;;;;;;;2.50;2.30;;;;;;;;;;5079092;28;20246;-64
2022/09/30 11:39:44;;;;;;;1.73;1.63;;;;;;;;;;5078250;28;20212;-63
2022/09/30 11:42:14;;;;;;;2.15;1.67;;;;;;;;;;5075635;28;20212;-63
2022/09/30 11:44:43;;;;;;;3.42;1.75;;;;;;;;;;5075719;28;20208;-64
2022/09/30 11:47:18;;;;;;;1.90;1.75;;;;;;;;;;5076223;28;20498;-60
2022/09/30 11:49:52;;;;;;;3.58;1.92;;;;;;;;;;5076134;28;20220;-60
2022/09/30 11:52:20;;;;;;;2.92;2.05;;;;;;;;;;5074791;28;20218;-61
2022/09/30 11:54:55;;;;;;;3.53;1.90;;;;;;;;;;5075272;28;20224;-60
2022/09/30 11:57:23;;;;;;;2.60;1.88;;;;;;;;;;5075667;28;20219;-60
2022/09/30 11:59:53;;;;;;;4.65;1.80;;;;;;;;;;5074945;28;20222;-60
2022/09/30 12:02:29;;;;;;;1.92;1.83;;;;;;;;;;5075372;28;20219;-61
2022/09/30 12:04:59;;;;;;;1.70;1.58;;;;;;;;;;5076378;28;20242;-61
2022/09/30 12:07:28;;;;;;;1.50;1.40;;;;;;;;;;5076071;28;20212;-65
2022/09/30 12:09:57;;;;;;;7.50;1.60;;;;;;;;;;5075858;28;20212;-61
2022/09/30 12:12:24;;;;;;;1.70;1.52;;;;;;;;;;5075957;28;20220;-62
2022/09/30 12:14:54;;;;;;;1.75;1.40;;;;;;;;;;5075595;28;20235;-62
2022/09/30 12:17:22;;;;;;;3.00;2.47;;;;;;;;;;5076541;28;20212;-62
2022/09/30 12:19:50;;;;;;;3.08;1.13;;;;;;;;;;5075788;28;20231;-63
2022/09/30 12:22:20;;;;;;;1.05;0.80;;;;;;;;;;5075168;28;20306;-63
2022/09/30 12:24:46;;;;;;;2.10;1.98;;;;;;;;;;5074600;28;20204;-63
2022/09/30 12:27:15;;;;;;;2.78;2.05;;;;;;;;;;5075356;28;20219;-63
2022/09/30 12:32:45;;;;;;;2.45;0.90;;;;;;;;;;5074108;28;20246;-63
2022/09/30 12:35:28;;;;;;;2.80;1.17;;;;;;;;;;5074976;28;20212;-63
2022/09/30 12:38:03;;;;;;;0.80;0.80;;;;;;;;;;5075012;28;20212;-63
2022/09/30 12:40:38;;;;;;;1.20;0.70;;;;;;;;;;5074562;28;20211;-62
2022/09/30 12:43:23;;;;;;;2.92;0.80;;;;;;;;;;5074658;28;20204;-63
2022/09/30 12:46:13;;;;;;;3.28;0.98;;;;;;;;;;5072687;28;20231;-62
2022/09/30 12:48:42;;;;;;;1.25;0.90;;;;;;;;;;5058339;28;20566;-62
2022/09/30 12:51:10;;;;;;;1.48;0.80;;;;;;;;;;5075021;28;20219;-62
2022/09/30 12:53:38;;;;;;;1.27;1.17;;;;;;;;;;5073945;28;20595;-62
2022/09/30 12:56:05;;;;;;;16.15;10.32;;;;;;;;;;5075819;28;20441;-62
2022/09/30 12:58:33;;;;;;;1.90;0.90;;;;;;;;;;5073975;28;20218;-62
2022/09/30 13:01:02;;;;;;;3.03;1.00;;;;;;;;;;5074722;28;20215;-62
2022/09/30 13:03:28;;;;;;;1.10;1.00;;;;;;;;;;5074409;28;20415;-62
2022/09/30 13:06:05;;;;;;;0.80;0.80;;;;;;;;;;5073907;28;20228;-62
2022/09/30 13:08:36;;;;;;;1.17;0.73;;;;;;;;;;5072887;28;20212;-62
2022/09/30 13:11:06;;;;;;;2.65;1.05;;;;;;;;;;5074733;28;20402;-62
2022/09/30 13:13:35;;;;;;;1.45;0.82;;;;;;;;;;5074383;28;20605;-62
2022/09/30 13:16:05;;;;;;;0.70;0.70;;;;;;;;;;5073815;28;20306;-65
2022/09/30 13:18:50;;;;;;;1.15;0.80;;;;;;;;;;5074704;28;20514;-62
2022/09/30 13:21:18;;;;;;;2.95;1.10;;;;;;;;;;5074485;28;20524;-62
2022/09/30 13:23:45;;;;;;;1.40;0.90;;;;;;;;;;5072834;28;20300;-62
2022/09/30 13:26:35;;;;;;;1.67;0.90;;;;;;;;;;5071045;28;20399;-62
2022/09/30 13:29:20;;;;;;;1.38;0.77;;;;;;;;;;5073482;28;20214;-62
2022/09/30 13:32:02;;;;;;;1.30;0.80;;;;;;;;;;5073582;28;20220;-63
2022/09/30 13:34:31;;;;;;;1.05;1.00;;;;;;;;;;5073131;28;20228;-64
2022/09/30 13:36:58;;;;;;;1.15;0.77;;;;;;;;;;5074109;28;20441;-64
2022/09/30 13:39:27;;;;;;;1.10;0.88;;;;;;;;;;5073148;28;20519;-64
2022/09/30 13:42:00;;;;;;;0.70;0.70;;;;;;;;;;5075134;28;20512;-64
2022/09/30 13:44:31;;;;;;;0.88;0.73;;;;;;;;;;5075890;28;20196;-64
2022/09/30 13:47:00;;;;;;;0.70;0.70;;;;;;;;;;5076227;28;20205;-64
2022/09/30 13:49:34;;;;;;;1.92;0.95;;;;;;;;;;5076084;28;20208;-64
2022/09/30 13:52:02;;;;;;;3.53;1.10;;;;;;;;;;5076293;28;20212;-64
2022/09/30 13:54:30;;;;;;;0.90;0.90;;;;;;;;;;5075556;28;20247;-64
2022/09/30 13:56:59;;;;;;;1.63;1.00;;;;;;;;;;5076205;28;20434;-70
2022/09/30 13:59:30;;;;;;;2.63;0.75;;;;;;;;;;5082295;28;20450;-70
2022/09/30 14:02:20;;;;;;;0.73;0.73;;;;;;;;;;5082553;28;20226;-70
2022/09/30 14:04:57;;;;;;;1.15;0.80;;;;;;;;;;5082248;28;20438;-70
2022/09/30 14:07:31;;;;;;;0.82;0.82;;;;;;;;;;5082284;28;20199;-70
2022/09/30 14:10:07;;;;;;;0.60;0.60;;;;;;;;;;5081960;28;20203;-69
2022/09/30 14:12:43;;;;;;;0.60;0.60;;;;;;;;;;5080740;28;20206;-69
2022/09/30 14:15:18;;;;;;;0.60;0.60;;;;;;;;;;5081774;28;20322;-70
2022/09/30 14:17:59;;;;;;;0.57;0.57;;;;;;;;;;5082118;28;20200;-69
2022/09/30 14:20:37;;;;;;;0.75;0.75;;;;;;;;;;5079212;28;20503;-70
2022/09/30 14:23:04;;;;;;;1.23;0.82;;;;;;;;;;5081542;28;20386;-69
2022/09/30 14:25:32;;;;;;;1.90;0.77;;;;;;;;;;5081588;28;20250;-69
2022/09/30 14:28:03;;;;;;;1.23;0.70;;;;;;;;;;5082707;28;20388;-69
2022/09/30 14:30:33;;;;;;;1.48;0.70;;;;;;;;;;5086126;28;20362;-69
2022/09/30 14:33:02;;;;;;;0.90;0.70;;;;;;;;;;5086082;28;20192;-69
2022/09/30 14:35:29;;;;;;;1.13;1.00;;;;;;;;;;5085956;28;20220;-69
2022/09/30 14:37:57;;;;;;;1.15;1.00;;;;;;;;;;5085726;28;20214;-69
2022/09/30 14:40:25;;;;;;;1.50;0.88;;;;;;;;;;5085797;28;20384;-69
2022/09/30 14:42:51;;;;;;;0.80;0.60;;;;;;;;;;5085676;28;20196;-69
2022/09/30 14:45:24;;;;;;;0.70;0.70;;;;;;;;;;5086009;28;20200;-69
2022/09/30 14:47:52;;;;;;;2.58;1.00;;;;;;;;;;5085748;28;20282;-69
2022/09/30 14:50:20;;;;;;;2.13;0.70;;;;;;;;;;5085561;28;20369;-69
2022/09/30 14:52:47;;;;;;;3.20;0.77;;;;;;;;;;5085305;28;20211;-69
2022/09/30 14:55:22;;;;;;;3.60;0.63;;;;;;;;;;5085525;28;20220;-69